Time;durP1;ratioP1;P1;durP2;ratioP2;P2;SDS_P1;SDS_P2;PMS_P1;PMS_P2;Temp;Humidity;BMP_temperature;BMP_pressure;BME280_temperature;BME280_humidity;BME280_pressure;Samples;Min_cycle;Max_cycle;Signal;HPM_P1;HPM_P2
2023/11/25 00:02:21;;;;;;;3.65;1.75;;;0.90;99.90;;;;;;5054491;28;20276;-61
2023/11/25 00:04:47;;;;;;;6.28;2.53;;;0.90;99.90;;;;;;5055034;28;20274;-62
2023/11/25 00:07:15;;;;;;;5.40;1.60;;;0.90;99.90;;;;;;5056130;28;20227;-63
2023/11/25 00:09:42;;;;;;;7.38;2.80;;;0.80;99.90;;;;;;5055417;28;20315;-62
2023/11/25 00:12:09;;;;;;;3.47;1.58;;;0.80;99.90;;;;;;5054955;28;20312;-61
2023/11/25 00:14:37;;;;;;;4.10;2.85;;;0.80;99.90;;;;;;5055244;28;20208;-62
2023/11/25 00:17:04;;;;;;;7.05;2.30;;;0.80;99.90;;;;;;5055428;28;20218;-61
2023/11/25 00:19:31;;;;;;;6.00;2.97;;;0.80;99.90;;;;;;5055887;28;20197;-63
2023/11/25 00:21:57;;;;;;;4.80;2.63;;;0.80;99.90;;;;;;5055577;28;20224;-61
2023/11/25 00:24:24;;;;;;;6.50;2.65;;;0.80;99.90;;;;;;5057934;28;20212;-61
2023/11/25 00:26:51;;;;;;;4.68;2.95;;;0.70;99.90;;;;;;5056326;28;20280;-63
2023/11/25 00:29:18;;;;;;;3.63;2.15;;;0.70;99.90;;;;;;5059077;28;20202;-61
2023/11/25 00:31:49;;;;;;;3.15;2.50;;;0.70;99.90;;;;;;5060301;28;20229;-61
2023/11/25 00:34:15;;;;;;;3.70;1.90;;;0.70;99.90;;;;;;5060133;28;20194;-61
2023/11/25 00:36:42;;;;;;;4.40;2.00;;;0.70;99.90;;;;;;5059546;28;20210;-61
2023/11/25 00:39:09;;;;;;;4.03;2.20;;;0.70;99.90;;;;;;5061837;28;20598;-62
2023/11/25 00:41:38;;;;;;;1.88;1.30;;;0.70;99.90;;;;;;5063120;28;20232;-62
2023/11/25 00:44:07;;;;;;;4.30;1.33;;;0.60;99.90;;;;;;5066670;28;20690;-62
2023/11/25 00:46:34;;;;;;;3.00;1.33;;;0.60;99.90;;;;;;5063710;28;20215;-62
2023/11/25 00:49:04;;;;;;;3.70;1.60;;;0.60;99.90;;;;;;5062825;28;20205;-61
2023/11/25 00:51:31;;;;;;;4.35;1.55;;;0.60;99.90;;;;;;5058565;28;20225;-62
2023/11/25 00:53:58;;;;;;;8.40;1.70;;;0.60;99.90;;;;;;5058242;28;20197;-62
2023/11/25 00:56:25;;;;;;;3.15;1.60;;;0.60;99.90;;;;;;5058500;28;20198;-62
2023/11/25 00:58:52;;;;;;;5.35;2.60;;;0.60;99.90;;;;;;5059207;28;20228;-62
2023/11/25 01:01:20;;;;;;;4.50;1.30;;;0.60;99.90;;;;;;5058596;28;20287;-61
2023/11/25 01:03:46;;;;;;;3.97;1.40;;;0.60;99.90;;;;;;5061152;28;20205;-62
2023/11/25 01:06:15;;;;;;;2.63;1.50;;;0.60;99.90;;;;;;5069622;28;20297;-62
2023/11/25 01:08:42;;;;;;;4.47;1.58;;;0.60;99.90;;;;;;5068652;28;20208;-62
2023/11/25 01:11:08;;;;;;;6.70;1.35;;;0.60;99.90;;;;;;5059672;28;20225;-61
2023/11/25 01:13:35;;;;;;;2.83;1.60;;;0.60;99.90;;;;;;5058380;28;20220;-61
2023/11/25 01:16:02;;;;;;;5.72;1.60;;;0.50;99.90;;;;;;5058551;28;20584;-61
2023/11/25 01:18:29;;;;;;;6.15;1.63;;;0.50;99.90;;;;;;5058196;28;20217;-61
2023/11/25 01:20:56;;;;;;;8.90;1.20;;;0.60;99.90;;;;;;5058339;28;20216;-61
2023/11/25 01:23:26;;;;;;;2.25;1.08;;;0.60;99.90;;;;;;5057972;28;20205;-62
2023/11/25 01:25:52;;;;;;;1.80;1.30;;;0.60;99.90;;;;;;5058377;28;20198;-61
2023/11/25 01:28:19;;;;;;;5.60;1.40;;;0.60;99.90;;;;;;5060110;28;20202;-61
2023/11/25 01:30:46;;;;;;;3.92;1.65;;;0.70;99.90;;;;;;5058101;28;20198;-61
2023/11/25 01:33:13;;;;;;;3.50;1.80;;;0.70;99.90;;;;;;5058552;28;20202;-62
2023/11/25 01:35:39;;;;;;;2.63;1.73;;;0.70;99.90;;;;;;5057711;28;20202;-62
2023/11/25 01:38:06;;;;;;;1.77;1.20;;;0.70;99.90;;;;;;5057076;28;20249;-61
2023/11/25 01:40:36;;;;;;;6.55;1.83;;;0.70;99.90;;;;;;5056483;28;20277;-61
2023/11/25 01:43:07;;;;;;;3.78;1.48;;;0.70;99.90;;;;;;5057067;28;20222;-62
2023/11/25 01:45:34;;;;;;;4.20;1.42;;;0.70;99.90;;;;;;5057141;28;20190;-62
2023/11/25 01:48:02;;;;;;;8.27;1.70;;;0.70;99.90;;;;;;5057046;28;20197;-60
2023/11/25 01:50:33;;;;;;;5.13;1.55;;;0.70;99.90;;;;;;5056900;28;20271;-61
2023/11/25 01:53:00;;;;;;;3.10;1.83;;;0.80;99.90;;;;;;5056635;28;20234;-61
2023/11/25 01:55:28;;;;;;;11.55;1.90;;;0.80;99.90;;;;;;5056637;28;20228;-62
2023/11/25 01:57:56;;;;;;;2.70;1.42;;;0.80;99.90;;;;;;5056315;28;20245;-61
2023/11/25 02:00:24;;;;;;;3.15;1.75;;;0.80;99.90;;;;;;5056039;28;20202;-62
2023/11/25 02:02:51;;;;;;;4.70;1.40;;;0.90;99.90;;;;;;5055743;28;20714;-61
2023/11/25 02:05:18;;;;;;;6.10;1.80;;;0.80;99.90;;;;;;5056265;28;20578;-61
2023/11/25 02:07:45;;;;;;;5.95;1.60;;;0.90;99.90;;;;;;5056721;28;20314;-59
2023/11/25 02:10:11;;;;;;;5.15;1.50;;;0.80;99.90;;;;;;5056123;28;20194;-62
2023/11/25 02:12:39;;;;;;;3.80;2.03;;;0.80;99.90;;;;;;5056196;28;20222;-63
2023/11/25 02:15:10;;;;;;;4.20;1.83;;;0.80;99.90;;;;;;5055848;28;20260;-62
2023/11/25 02:17:38;;;;;;;1.85;1.25;;;0.70;99.90;;;;;;5056510;28;20205;-61
2023/11/25 02:20:06;;;;;;;5.03;1.40;;;0.70;99.90;;;;;;5055878;28;20212;-61
2023/11/25 02:22:32;;;;;;;7.10;1.83;;;0.70;99.90;;;;;;5055628;28;20217;-61
2023/11/25 02:25:02;;;;;;;6.20;1.80;;;0.70;99.90;;;;;;5055771;28;20201;-61
2023/11/25 02:27:29;;;;;;;2.22;1.20;;;0.80;99.90;;;;;;5055947;28;20223;-61
2023/11/25 02:29:55;;;;;;;9.73;1.30;;;0.70;99.90;;;;;;5055763;28;20206;-62
2023/11/25 02:32:23;;;;;;;8.98;1.63;;;0.70;99.90;;;;;;5056248;28;20225;-61
2023/11/25 02:34:50;;;;;;;1.85;1.42;;;0.70;99.90;;;;;;5056042;28;20205;-61
2023/11/25 02:37:19;;;;;;;3.63;2.13;;;0.70;99.90;;;;;;5055568;28;20202;-61
2023/11/25 02:39:46;;;;;;;5.75;1.60;;;0.70;99.90;;;;;;5055285;28;20648;-60
2023/11/25 02:42:15;;;;;;;5.05;1.70;;;0.70;99.90;;;;;;5055345;28;20719;-62
2023/11/25 02:44:42;;;;;;;6.18;2.28;;;0.80;99.90;;;;;;5055558;28;20212;-61
2023/11/25 02:47:08;;;;;;;4.93;1.65;;;0.80;99.90;;;;;;5055893;28;20202;-61
2023/11/25 02:49:35;;;;;;;4.32;1.48;;;0.80;99.90;;;;;;5056160;28;20201;-61
2023/11/25 02:52:04;;;;;;;4.18;1.40;;;0.90;99.90;;;;;;5062903;28;20226;-61
2023/11/25 02:54:31;;;;;;;8.20;1.70;;;0.90;99.90;;;;;;5065971;28;20201;-63
2023/11/25 02:56:58;;;;;;;9.18;4.00;;;1.00;99.90;;;;;;5063464;28;20209;-62
2023/11/25 02:59:27;;;;;;;6.57;1.35;;;1.00;99.90;;;;;;5060136;28;20236;-62
2023/11/25 03:01:53;;;;;;;11.07;2.10;;;1.00;99.90;;;;;;5056793;28;20229;-62
2023/11/25 03:04:23;;;;;;;2.75;1.92;;;1.10;99.90;;;;;;5056095;28;20252;-61
2023/11/25 03:06:51;;;;;;;6.47;2.88;;;1.10;99.90;;;;;;5056436;28;20212;-61
2023/11/25 03:09:17;;;;;;;7.15;3.15;;;1.20;99.90;;;;;;5055981;28;20233;-62
2023/11/25 03:11:44;;;;;;;11.32;1.95;;;1.20;99.90;;;;;;5055982;28;20597;-62
2023/11/25 03:14:11;;;;;;;5.45;2.15;;;1.30;99.90;;;;;;5055862;28;20209;-62
2023/11/25 03:16:39;;;;;;;4.20;1.92;;;1.40;99.90;;;;;;5055573;28;20198;-62
2023/11/25 03:19:09;;;;;;;5.82;1.60;;;1.40;99.90;;;;;;5055529;28;20226;-62
2023/11/25 03:21:36;;;;;;;5.10;1.85;;;1.50;99.90;;;;;;5063498;28;20283;-62
2023/11/25 03:24:04;;;;;;;5.88;1.60;;;1.50;99.90;;;;;;5071015;28;20206;-62
2023/11/25 03:26:31;;;;;;;9.23;3.53;;;1.50;99.90;;;;;;5069650;28;20212;-62
2023/11/25 03:28:58;;;;;;;5.80;2.30;;;1.50;99.90;;;;;;5061612;28;20202;-63
2023/11/25 03:31:25;;;;;;;5.72;1.75;;;1.60;99.90;;;;;;5055977;28;20749;-61
2023/11/25 03:33:53;;;;;;;5.20;1.45;;;1.60;99.90;;;;;;5054947;28;20251;-62
2023/11/25 03:36:20;;;;;;;4.32;1.70;;;1.70;99.90;;;;;;5054951;28;20220;-62
2023/11/25 03:38:47;;;;;;;11.30;2.30;;;1.70;99.90;;;;;;5055461;28;20249;-62
2023/11/25 03:41:13;;;;;;;9.98;1.85;;;1.70;99.90;;;;;;5054675;28;20237;-62
2023/11/25 03:43:40;;;;;;;5.82;1.73;;;1.70;99.90;;;;;;5055113;28;20213;-62
2023/11/25 03:46:07;;;;;;;2.53;1.10;;;1.70;99.90;;;;;;5055135;28;20568;-61
2023/11/25 03:48:34;;;;;;;5.95;1.90;;;1.70;99.90;;;;;;5054548;28;20682;-61
2023/11/25 03:51:04;;;;;;;5.68;1.85;;;1.80;99.90;;;;;;5055021;28;20232;-62
2023/11/25 03:53:31;;;;;;;4.75;1.92;;;1.80;99.90;;;;;;5054814;28;20288;-62
2023/11/25 03:55:59;;;;;;;8.48;2.58;;;1.80;99.90;;;;;;5058846;28;20208;-62
2023/11/25 03:58:26;;;;;;;4.90;2.17;;;1.80;99.90;;;;;;5069316;28;20241;-62
2023/11/25 04:00:53;;;;;;;9.55;1.92;;;1.80;99.90;;;;;;5066692;28;20672;-62
2023/11/25 04:03:20;;;;;;;6.30;1.35;;;1.80;99.90;;;;;;5055568;28;20184;-62
2023/11/25 04:05:46;;;;;;;10.18;1.92;;;1.80;99.90;;;;;;5054522;28;20228;-61
2023/11/25 04:08:14;;;;;;;9.70;1.65;;;1.80;99.90;;;;;;5054435;28;20193;-59
2023/11/25 04:12:36;;;;;;;3.95;1.63;;;1.90;99.90;;;;;;5092495;27;20958;-62
2023/11/25 04:15:04;;;;;;;3.33;1.52;;;1.90;99.90;;;;;;5091534;28;20211;-61
2023/11/25 04:17:31;;;;;;;4.15;1.75;;;1.90;99.90;;;;;;5092130;28;20627;-62
2023/11/25 04:19:57;;;;;;;7.63;1.90;;;1.90;99.90;;;;;;5091600;28;20204;-62
2023/11/25 04:22:24;;;;;;;9.30;2.20;;;1.90;99.90;;;;;;5091855;28;20221;-63
2023/11/25 04:24:52;;;;;;;6.78;2.08;;;1.90;99.90;;;;;;5091830;28;20211;-61
2023/11/25 04:27:21;;;;;;;2.95;1.90;;;2.00;99.90;;;;;;5091410;28;20196;-61
2023/11/25 04:29:49;;;;;;;5.32;1.70;;;2.00;99.90;;;;;;5091737;28;20204;-61
2023/11/25 04:32:16;;;;;;;6.05;2.10;;;2.10;99.90;;;;;;5091484;28;20227;-62
2023/11/25 04:34:43;;;;;;;3.50;1.42;;;2.10;99.90;;;;;;5091918;28;20258;-62
2023/11/25 04:37:10;;;;;;;10.75;1.50;;;2.20;99.90;;;;;;5092447;28;20258;-61
2023/11/25 04:39:38;;;;;;;6.90;1.83;;;2.20;99.90;;;;;;5092842;28;20201;-62
2023/11/25 04:42:05;;;;;;;12.93;2.17;;;2.20;99.90;;;;;;5091909;28;20216;-61
2023/11/25 04:44:33;;;;;;;2.42;1.75;;;2.20;99.90;;;;;;5092348;28;20209;-62
2023/11/25 04:47:01;;;;;;;7.30;2.10;;;2.20;99.90;;;;;;5090593;28;20200;-61
2023/11/25 04:49:28;;;;;;;9.70;1.88;;;2.20;99.90;;;;;;5090131;28;20208;-60
2023/11/25 04:51:55;;;;;;;7.70;1.60;;;2.20;99.90;;;;;;5090040;28;20658;-63
2023/11/25 04:54:21;;;;;;;6.13;2.47;;;2.20;99.90;;;;;;5090186;28;20200;-61
2023/11/25 04:56:48;;;;;;;2.30;1.85;;;2.20;99.90;;;;;;5091156;28;20204;-60
2023/11/25 04:59:15;;;;;;;5.00;2.05;;;2.20;99.90;;;;;;5091439;28;20207;-60
2023/11/25 05:01:43;;;;;;;3.20;1.55;;;2.20;99.90;;;;;;5090810;28;20213;-61
2023/11/25 05:04:11;;;;;;;5.55;1.50;;;2.20;99.90;;;;;;5089901;28;20200;-61
2023/11/25 05:06:37;;;;;;;5.53;1.70;;;2.30;99.90;;;;;;5089664;28;20200;-61
2023/11/25 05:09:04;;;;;;;6.60;1.45;;;2.30;99.90;;;;;;5089933;28;20200;-61
2023/11/25 05:11:31;;;;;;;7.68;2.10;;;2.30;99.90;;;;;;5089468;28;20694;-62
2023/11/25 05:13:58;;;;;;;5.85;2.28;;;2.30;99.90;;;;;;5090211;28;20686;-62
2023/11/25 05:16:25;;;;;;;3.50;1.60;;;2.30;99.90;;;;;;5091609;28;20200;-61
2023/11/25 05:18:52;;;;;;;6.93;1.67;;;2.30;99.90;;;;;;5091845;28;20205;-60
2023/11/25 05:21:20;;;;;;;3.53;2.03;;;2.30;99.90;;;;;;5089914;28;20216;-61
2023/11/25 05:23:49;;;;;;;7.38;1.90;;;2.40;99.90;;;;;;5076573;28;20219;-61
2023/11/25 05:26:16;;;;;;;4.72;1.70;;;2.40;99.90;;;;;;5076100;28;20208;-62
2023/11/25 05:28:43;;;;;;;7.53;1.73;;;2.50;99.90;;;;;;5076911;28;20625;-61
2023/11/25 05:31:11;;;;;;;5.68;1.80;;;2.50;99.90;;;;;;5075976;28;20233;-62
2023/11/25 05:33:38;;;;;;;3.83;2.03;;;2.60;99.90;;;;;;5075917;28;20235;-64
2023/11/25 05:36:05;;;;;;;5.78;1.67;;;2.60;99.90;;;;;;5076152;28;20205;-63
2023/11/25 05:38:34;;;;;;;11.45;1.60;;;2.70;99.90;;;;;;5075993;28;20267;-64
2023/11/25 05:41:02;;;;;;;5.25;1.40;;;;;;;;;;5081247;28;20245;-60
2023/11/25 05:43:29;;;;;;;8.52;2.95;;;;;;;;;;5078625;28;20197;-62
2023/11/25 05:45:58;;;;;;;6.10;1.70;;;;;;;;;;5078653;28;20208;-62
2023/11/25 05:48:26;;;;;;;7.15;1.75;;;2.80;99.90;;;;;;5078996;28;20216;-62
2023/11/25 05:50:53;;;;;;;5.65;2.05;;;2.90;99.90;;;;;;5078926;28;20209;-62
2023/11/25 05:53:20;;;;;;;10.13;2.20;;;2.90;99.90;;;;;;5078408;28;20212;-63
2023/11/25 05:55:48;;;;;;;8.48;1.90;;;2.90;99.90;;;;;;5075618;28;20208;-62
2023/11/25 05:58:15;;;;;;;2.70;1.50;;;2.90;99.90;;;;;;5076014;28;20232;-63
2023/11/25 06:00:42;;;;;;;5.53;2.08;;;2.90;99.90;;;;;;5075755;28;20570;-62
2023/11/25 06:03:09;;;;;;;3.83;1.40;;;3.00;99.90;;;;;;5076039;28;20209;-62
2023/11/25 06:05:35;;;;;;;4.55;1.52;;;3.00;99.90;;;;;;5075679;28;20209;-62
2023/11/25 06:08:02;;;;;;;4.07;1.75;;;3.00;99.90;;;;;;5075691;28;20197;-62
2023/11/25 06:10:29;;;;;;;4.93;1.58;;;3.00;99.90;;;;;;5075314;28;20205;-62
2023/11/25 06:12:57;;;;;;;4.60;1.92;;;3.00;99.90;;;;;;5075301;28;20229;-62
2023/11/25 06:15:24;;;;;;;7.22;2.28;;;3.10;99.90;;;;;;5074962;28;20694;-62
2023/11/25 06:17:52;;;;;;;5.53;1.35;;;3.10;99.90;;;;;;5075126;28;20212;-63
2023/11/25 06:20:19;;;;;;;6.43;1.70;;;3.10;99.90;;;;;;5075113;28;20200;-63
2023/11/25 06:22:46;;;;;;;6.13;2.30;;;3.00;99.90;;;;;;5075042;28;20244;-63
2023/11/25 06:25:13;;;;;;;6.60;1.70;;;3.00;99.90;;;;;;5075560;28;20216;-63
2023/11/25 06:27:40;;;;;;;5.60;1.88;;;3.00;99.90;;;;;;5075454;28;20228;-63
2023/11/25 06:30:09;;;;;;;5.15;2.03;;;2.90;99.90;;;;;;5075400;28;20284;-61
2023/11/25 06:32:37;;;;;;;7.55;1.80;;;3.00;99.90;;;;;;5075485;28;20224;-63
2023/11/25 06:35:06;;;;;;;11.32;1.88;;;2.90;99.90;;;;;;5074191;28;20292;-62
2023/11/25 06:37:33;;;;;;;3.47;1.40;;;2.90;99.90;;;;;;5075097;28;20236;-63
2023/11/25 06:40:00;;;;;;;6.68;1.85;;;2.90;99.90;;;;;;5075135;28;20624;-62
2023/11/25 06:42:27;;;;;;;6.75;1.83;;;2.90;99.90;;;;;;5074907;28;20217;-63
2023/11/25 06:44:54;;;;;;;4.68;1.60;;;2.90;99.90;;;;;;5075126;28;20242;-63
2023/11/25 06:47:22;;;;;;;4.60;1.40;;;2.90;99.90;;;;;;5075371;28;20575;-62
2023/11/25 06:49:50;;;;;;;3.65;2.22;;;2.90;99.90;;;;;;5074634;28;20692;-63
2023/11/25 06:52:17;;;;;;;4.88;2.03;;;2.90;99.90;;;;;;5075027;28;20224;-63
2023/11/25 06:54:44;;;;;;;7.50;2.00;;;2.80;99.90;;;;;;5074615;28;20674;-63
2023/11/25 06:57:11;;;;;;;10.48;1.83;;;2.70;99.90;;;;;;5074757;28;20280;-63
2023/11/25 06:59:44;;;;;;;5.72;2.20;;;2.70;99.90;;;;;;5076377;28;20205;-63
2023/11/25 07:02:11;;;;;;;10.15;2.75;;;2.60;99.90;;;;;;5078525;28;20583;-63
2023/11/25 07:04:39;;;;;;;8.27;1.80;;;2.50;99.90;;;;;;5079551;28;20205;-62
2023/11/25 07:07:07;;;;;;;6.90;2.35;;;2.50;99.90;;;;;;5078137;28;20215;-63
2023/11/25 07:09:34;;;;;;;17.73;2.58;;;2.50;99.90;;;;;;5075404;28;20246;-63
2023/11/25 07:12:00;;;;;;;13.60;3.10;;;2.40;99.90;;;;;;5074564;28;20225;-63
2023/11/25 07:14:27;;;;;;;6.03;1.95;;;2.40;99.90;;;;;;5075659;28;20204;-62
2023/11/25 07:16:54;;;;;;;8.55;2.50;;;2.40;99.90;;;;;;5077550;28;20667;-63
2023/11/25 07:19:21;;;;;;;9.70;2.13;;;2.40;99.90;;;;;;5077342;28;20205;-63
2023/11/25 07:21:50;;;;;;;3.97;2.00;;;2.40;99.90;;;;;;5077228;28;20301;-63
2023/11/25 07:24:17;;;;;;;6.30;1.85;;;2.50;99.90;;;;;;5079168;28;20204;-62
2023/11/25 07:26:51;;;;;;;7.57;2.67;;;2.50;99.90;;;;;;5076159;28;20204;-63
2023/11/25 07:29:19;;;;;;;8.23;2.25;;;2.50;99.90;;;;;;5074206;28;20190;-63
2023/11/25 07:31:46;;;;;;;12.23;2.63;;;2.50;99.90;;;;;;5073849;28;20233;-62
2023/11/25 07:34:13;;;;;;;7.95;2.08;;;2.50;99.90;;;;;;5074418;28;20201;-60
2023/11/25 07:36:42;;;;;;;14.02;2.35;;;2.50;99.90;;;;;;5074135;28;20205;-62
2023/11/25 07:39:10;;;;;;;2.70;1.52;;;2.50;99.90;;;;;;5075851;28;20280;-62
2023/11/25 07:41:36;;;;;;;5.18;2.40;;;2.50;99.90;;;;;;5074771;28;20228;-64
2023/11/25 07:44:03;;;;;;;4.82;1.90;;;2.40;99.90;;;;;;5074915;28;20208;-63
2023/11/25 07:46:30;;;;;;;7.75;2.10;;;2.40;99.90;;;;;;5074473;28;20650;-63
2023/11/25 07:48:56;;;;;;;13.60;2.85;;;2.40;99.90;;;;;;5074238;28;20205;-63
2023/11/25 07:51:25;;;;;;;8.32;2.33;;;2.40;99.90;;;;;;5073871;28;20232;-63
2023/11/25 07:53:52;;;;;;;5.78;2.13;;;2.40;99.90;;;;;;5074516;28;20236;-63
2023/11/25 07:56:20;;;;;;;7.88;1.60;;;2.40;99.90;;;;;;5073444;28;20208;-63
2023/11/25 07:58:47;;;;;;;5.80;2.10;;;2.40;99.90;;;;;;5073809;28;20197;-63
2023/11/25 08:01:13;;;;;;;5.28;1.85;;;2.40;99.90;;;;;;5073621;28;20243;-63
2023/11/25 08:03:40;;;;;;;6.22;1.80;;;2.40;99.90;;;;;;5073495;28;20197;-62
2023/11/25 08:06:08;;;;;;;4.68;2.00;;;2.40;99.90;;;;;;5077352;28;20211;-64
2023/11/25 08:08:34;;;;;;;9.13;2.30;;;2.40;99.90;;;;;;5073820;28;20201;-62
2023/11/25 08:11:02;;;;;;;7.68;3.00;;;2.40;99.90;;;;;;5073093;28;20340;-62
2023/11/25 08:13:30;;;;;;;7.30;1.90;;;2.50;99.90;;;;;;5073299;28;20681;-63
2023/11/25 08:15:57;;;;;;;12.15;2.28;;;2.50;99.90;;;;;;5073495;28;20205;-62
2023/11/25 08:18:24;;;;;;;6.35;2.15;;;2.50;99.90;;;;;;5073506;28;20209;-63
2023/11/25 08:20:51;;;;;;;17.42;2.78;;;2.50;99.90;;;;;;5073582;28;20228;-63
2023/11/25 08:23:18;;;;;;;1.85;1.52;;;2.50;99.90;;;;;;5073359;28;20204;-62
2023/11/25 08:25:45;;;;;;;10.48;2.10;;;2.50;99.90;;;;;;5073451;28;20207;-62
2023/11/25 08:28:12;;;;;;;4.93;2.38;;;2.60;99.90;;;;;;5073448;28;20201;-63
2023/11/25 08:30:40;;;;;;;5.57;2.10;;;2.60;99.90;;;;;;5073128;28;20621;-63
2023/11/25 08:33:07;;;;;;;9.45;2.05;;;2.60;99.90;;;;;;5073198;28;20219;-64
2023/11/25 08:35:34;;;;;;;4.05;1.98;;;2.70;99.90;;;;;;5073419;28;20205;-63
2023/11/25 08:38:00;;;;;;;5.25;2.20;;;2.70;99.90;;;;;;5073255;28;20209;-63
2023/11/25 08:40:27;;;;;;;4.93;2.00;;;2.80;99.90;;;;;;5073402;28;20277;-63
2023/11/25 08:42:56;;;;;;;2.20;1.33;;;2.80;99.90;;;;;;5073523;28;20249;-62
2023/11/25 08:45:24;;;;;;;3.33;1.40;;;2.80;99.90;;;;;;5072869;28;20197;-62
2023/11/25 08:47:52;;;;;;;5.85;1.80;;;2.90;99.90;;;;;;5073082;28;20233;-63
2023/11/25 08:50:19;;;;;;;4.60;1.73;;;2.90;99.90;;;;;;5073238;28;20578;-62
2023/11/25 08:52:48;;;;;;;4.63;1.75;;;3.00;99.90;;;;;;5073215;28;20225;-63
2023/11/25 08:55:17;;;;;;;4.15;2.10;;;3.00;99.90;;;;;;5073379;28;20287;-63
2023/11/25 08:57:44;;;;;;;5.53;1.92;;;3.10;99.90;;;;;;5073859;28;20625;-63
2023/11/25 09:00:15;;;;;;;12.60;1.75;;;3.20;99.90;;;;;;5077009;28;20235;-64
2023/11/25 09:02:42;;;;;;;2.85;1.52;;;3.20;99.90;;;;;;5076967;28;20217;-62
2023/11/25 09:05:14;;;;;;;4.57;1.63;;;3.30;99.90;;;;;;5078031;28;20211;-63
2023/11/25 09:07:41;;;;;;;1.92;1.45;;;3.40;99.90;;;;;;5077766;28;20221;-63
2023/11/25 09:10:10;;;;;;;5.72;1.55;;;3.50;99.90;;;;;;5078118;28;20201;-63
2023/11/25 09:12:37;;;;;;;3.08;1.10;;;3.50;99.90;;;;;;5076681;28;20703;-62
2023/11/25 09:15:06;;;;;;;2.90;1.20;;;3.50;99.90;;;;;;5078654;28;20201;-63
2023/11/25 09:17:35;;;;;;;2.45;0.70;;;3.50;99.90;;;;;;5076441;28;20205;-63
2023/11/25 09:20:02;;;;;;;2.35;0.90;;;3.50;99.90;;;;;;5076643;28;20205;-62
2023/11/25 09:22:30;;;;;;;1.10;0.95;;;3.60;99.90;;;;;;5076602;28;20220;-63
2023/11/25 09:24:57;;;;;;;1.23;1.10;;;3.60;99.90;;;;;;5076430;28;20208;-62
2023/11/25 09:27:24;;;;;;;1.30;0.82;;;3.60;99.90;;;;;;5076265;28;20201;-62
2023/11/25 09:29:51;;;;;;;2.03;1.20;;;3.60;99.90;;;;;;5077195;28;20205;-63
2023/11/25 09:32:19;;;;;;;2.38;1.30;;;3.60;99.90;;;;;;5080192;28;20221;-63
2023/11/25 09:34:46;;;;;;;2.78;0.70;;;3.60;99.90;;;;;;5078731;28;20266;-64
2023/11/25 09:37:12;;;;;;;4.80;1.50;;;3.70;99.90;;;;;;5078686;28;20201;-64
2023/11/25 09:39:40;;;;;;;2.67;0.95;;;3.80;99.90;;;;;;5077155;28;20201;-62
2023/11/25 09:42:08;;;;;;;1.75;1.00;;;3.80;99.90;;;;;;5076841;28;20232;-64
2023/11/25 09:44:35;;;;;;;2.20;0.70;;;3.70;99.90;;;;;;5076553;28;20215;-64
2023/11/25 09:47:02;;;;;;;2.80;0.63;;;3.70;99.90;;;;;;5076777;28;20208;-63
2023/11/25 09:49:29;;;;;;;2.78;0.80;;;3.70;99.90;;;;;;5076777;28;20200;-64
2023/11/25 09:52:04;;;;;;;0.80;0.60;;;3.70;99.90;;;;;;5076921;28;20225;-64
2023/11/25 09:54:31;;;;;;;1.85;1.30;;;3.60;99.90;;;;;;5078172;28;20292;-64
2023/11/25 09:57:00;;;;;;;2.20;1.05;;;3.60;99.90;;;;;;5076649;28;20197;-63
2023/11/25 09:59:29;;;;;;;1.15;0.70;;;3.60;99.90;;;;;;5078305;28;20615;-63
2023/11/25 10:01:57;;;;;;;1.83;1.00;;;3.60;99.90;;;;;;5077799;28;20277;-61
2023/11/25 10:04:27;;;;;;;3.08;0.93;;;3.60;99.90;;;;;;5079294;28;20209;-63
2023/11/25 10:06:55;;;;;;;4.13;1.15;;;3.60;99.90;;;;;;5078084;28;20201;-63
2023/11/25 10:09:22;;;;;;;1.77;0.90;;;3.50;99.90;;;;;;5077335;28;20205;-63
2023/11/25 10:11:49;;;;;;;2.03;1.08;;;3.60;99.90;;;;;;5076615;28;20311;-63
2023/11/25 10:14:17;;;;;;;1.75;1.10;;;3.60;99.90;;;;;;5078184;28;20240;-62
2023/11/25 10:16:45;;;;;;;0.80;0.80;;;3.70;99.90;;;;;;5078507;28;20209;-63
2023/11/25 10:19:20;;;;;;;1.15;0.82;;;3.70;99.90;;;;;;5079171;28;20273;-63
2023/11/25 10:21:48;;;;;;;5.90;1.85;;;3.70;99.90;;;;;;5079595;28;20650;-63
2023/11/25 10:24:15;;;;;;;3.30;1.17;;;3.70;99.90;;;;;;5079283;28;20197;-63
2023/11/25 10:26:43;;;;;;;2.90;1.67;;;3.70;99.90;;;;;;5078345;28;20677;-64
2023/11/25 10:29:11;;;;;;;3.72;1.60;;;3.70;99.90;;;;;;5076398;28;20204;-63
2023/11/25 10:31:42;;;;;;;3.72;1.38;;;3.70;99.90;;;;;;5075925;28;20221;-64
2023/11/25 10:34:11;;;;;;;3.38;2.60;;;3.80;99.90;;;;;;5075552;28;20251;-64
2023/11/25 10:36:40;;;;;;;2.85;1.30;;;3.80;99.90;;;;;;5076279;28;20201;-64
2023/11/25 10:39:08;;;;;;;5.07;1.67;;;3.80;99.90;;;;;;5076578;28;20619;-65
2023/11/25 10:41:37;;;;;;;2.90;1.98;;;3.80;99.90;;;;;;5078391;28;20217;-63
2023/11/25 10:44:04;;;;;;;2.60;1.83;;;3.80;99.90;;;;;;5078426;28;20201;-64
2023/11/25 10:46:38;;;;;;;4.72;1.75;;;3.90;99.90;;;;;;5077206;28;20212;-64
2023/11/25 10:49:08;;;;;;;2.50;1.60;;;4.00;99.90;;;;;;5076834;28;20189;-64
2023/11/25 10:51:35;;;;;;;3.33;1.42;;;4.10;99.90;;;;;;5080077;28;20614;-63
2023/11/25 10:54:03;;;;;;;3.40;1.77;;;4.20;99.90;;;;;;5078368;28;20575;-63
2023/11/25 10:56:31;;;;;;;2.90;1.67;;;4.40;99.90;;;;;;5081768;28;20295;-62
2023/11/25 10:59:00;;;;;;;2.35;1.48;;;4.40;99.90;;;;;;5081035;28;20204;-64
2023/11/25 11:01:31;;;;;;;3.63;1.75;;;4.50;99.90;;;;;;5081147;28;20221;-63
2023/11/25 11:04:00;;;;;;;3.83;1.85;;;4.50;99.90;;;;;;5080160;28;20182;-64
2023/11/25 11:06:34;;;;;;;2.40;1.73;;;4.60;99.90;;;;;;5079871;28;20201;-64
2023/11/25 11:09:04;;;;;;;2.75;1.65;;;4.60;99.90;;;;;;5080350;28;20651;-63
2023/11/25 11:11:46;;;;;;;6.05;2.10;;;4.70;99.90;;;;;;5080504;28;20232;-64
2023/11/25 11:14:14;;;;;;;2.78;1.70;;;4.80;99.90;;;;;;5080390;28;20232;-63
2023/11/25 11:16:51;;;;;;;6.18;2.10;;;4.80;99.90;;;;;;5079519;28;20201;-64
2023/11/25 11:19:25;;;;;;;5.18;1.73;;;4.80;99.90;;;;;;5078239;28;20185;-63
2023/11/25 11:22:03;;;;;;;4.88;2.38;;;4.90;99.90;;;;;;5076141;28;20706;-63
2023/11/25 11:24:39;;;;;;;5.82;2.30;;;4.90;99.90;;;;;;5078719;28;20192;-59
2023/11/25 11:27:13;;;;;;;3.08;2.30;;;5.00;99.90;;;;;;5080987;28;20189;-62
2023/11/25 11:29:47;;;;;;;4.53;2.00;;;5.00;99.90;;;;;;5078470;28;20197;-63
2023/11/25 11:32:19;;;;;;;6.65;1.92;;;5.10;99.90;;;;;;5076258;28;20595;-63
2023/11/25 11:34:46;;;;;;;8.57;2.33;;;5.10;99.90;;;;;;5077057;28;20201;-63
2023/11/25 11:37:15;;;;;;;3.65;2.10;;;5.20;99.90;;;;;;5078795;28;20205;-64
2023/11/25 11:39:58;;;;;;;5.00;2.55;;;5.20;99.90;;;;;;5080367;28;20205;-63
2023/11/25 11:42:27;;;;;;;9.57;2.53;;;5.20;99.90;;;;;;5082659;28;20259;-64
2023/11/25 11:45:09;;;;;;;3.10;2.00;;;5.20;99.90;;;;;;5081177;28;20227;-63
2023/11/25 11:47:36;;;;;;;4.35;2.20;;;5.20;99.90;;;;;;5082774;28;20209;-66
2023/11/25 11:50:08;;;;;;;6.85;2.38;;;5.20;99.90;;;;;;5084681;28;20208;-64
2023/11/25 11:52:44;;;;;;;2.60;2.28;;;5.30;99.90;;;;;;5083961;28;20288;-63
2023/11/25 11:55:34;;;;;;;6.40;2.15;;;5.20;99.90;;;;;;5076974;28;20184;-63
2023/11/25 11:58:04;;;;;;;3.38;1.92;;;5.20;99.90;;;;;;5075652;28;20255;-64
2023/11/25 12:00:32;;;;;;;3.00;2.00;;;5.30;99.90;;;;;;5076598;28;20197;-62
2023/11/25 12:03:00;;;;;;;8.20;2.25;;;5.30;99.90;;;;;;5076681;28;20221;-63
2023/11/25 12:05:27;;;;;;;4.68;2.10;;;5.30;99.90;;;;;;5075297;28;20212;-62
2023/11/25 12:07:55;;;;;;;9.15;2.40;;;5.40;99.90;;;;;;5075253;28;20599;-64
2023/11/25 12:10:22;;;;;;;6.53;2.85;;;5.40;99.90;;;;;;5074150;28;20701;-63
2023/11/25 12:12:51;;;;;;;3.35;1.90;;;5.40;99.90;;;;;;5075462;28;20714;-64
2023/11/25 12:15:18;;;;;;;4.35;2.80;;;5.40;99.90;;;;;;5079301;28;20239;-63
2023/11/25 12:17:45;;;;;;;5.53;2.50;;;5.30;99.90;;;;;;5078907;28;20205;-64
2023/11/25 12:20:13;;;;;;;7.03;2.55;;;5.30;99.90;;;;;;5074531;28;20258;-64
2023/11/25 12:22:40;;;;;;;8.55;2.65;;;5.30;99.90;;;;;;5074045;28;20225;-64
2023/11/25 12:25:13;;;;;;;2.60;2.40;;;5.30;99.90;;;;;;5075023;28;20201;-64
2023/11/25 12:27:45;;;;;;;5.50;2.40;;;5.30;99.90;;;;;;5076411;28;20185;-63
2023/11/25 12:30:13;;;;;;;5.35;2.38;;;5.20;99.90;;;;;;5075629;28;20185;-63
2023/11/25 12:32:42;;;;;;;9.23;2.70;;;5.20;99.90;;;;;;5075055;28;20728;-63
2023/11/25 12:35:11;;;;;;;7.32;2.80;;;5.20;99.90;;;;;;5078055;28;20361;-63
2023/11/25 12:37:40;;;;;;;6.07;3.10;;;5.20;99.90;;;;;;5078051;28;20213;-64
2023/11/25 12:40:19;;;;;;;6.90;3.95;;;5.20;99.90;;;;;;5079019;28;20287;-64
2023/11/25 12:42:47;;;;;;;7.95;4.05;;;5.20;99.90;;;;;;5079104;28;20221;-63
2023/11/25 12:45:28;;;;;;;8.70;3.92;;;5.30;99.90;;;;;;5078188;28;20209;-63
2023/11/25 12:47:55;;;;;;;6.45;3.65;;;5.40;99.90;;;;;;5077630;28;20574;-64
2023/11/25 12:50:22;;;;;;;5.95;3.00;;;5.40;99.90;;;;;;5077762;28;20208;-63
2023/11/25 12:53:04;;;;;;;9.98;4.00;;;5.50;99.90;;;;;;5078455;28;20712;-64
2023/11/25 12:55:43;;;;;;;6.15;3.25;;;5.60;99.90;;;;;;5078272;28;20269;-64
2023/11/25 12:58:12;;;;;;;6.32;3.90;;;5.70;99.90;;;;;;5077889;28;20643;-63
2023/11/25 13:00:46;;;;;;;6.30;4.07;;;5.80;99.90;;;;;;5078286;28;20659;-64
2023/11/25 13:03:21;;;;;;;6.07;3.25;;;5.80;99.90;;;;;;5078654;28;20196;-64
2023/11/25 13:05:49;;;;;;;6.55;3.33;;;5.90;99.90;;;;;;5080220;28;20274;-64